sensor_id;sensor_type;location;lat;lon;timestamp;temperature;humidity
26099;DHT22;13860;52.370;6.764;2022-10-16T00:02:29;13.40;89.50
26099;DHT22;13860;52.370;6.764;2022-10-16T00:05:38;13.40;89.50
26099;DHT22;13860;52.370;6.764;2022-10-16T00:08:42;13.40;89.50
26099;DHT22;13860;52.370;6.764;2022-10-16T00:11:46;13.40;89.50
26099;DHT22;13860;52.370;6.764;2022-10-16T00:14:50;13.40;89.50
26099;DHT22;13860;52.370;6.764;2022-10-16T00:17:53;13.40;89.50
26099;DHT22;13860;52.370;6.764;2022-10-16T00:21:04;13.30;89.40
26099;DHT22;13860;52.370;6.764;2022-10-16T00:24:27;13.40;89.50
26099;DHT22;13860;52.370;6.764;2022-10-16T00:27:31;13.30;89.50
26099;DHT22;13860;52.370;6.764;2022-10-16T00:30:37;13.30;89.50
26099;DHT22;13860;52.370;6.764;2022-10-16T00:33:41;13.30;89.50
26099;DHT22;13860;52.370;6.764;2022-10-16T00:36:47;13.30;89.50
26099;DHT22;13860;52.370;6.764;2022-10-16T00:39:50;13.30;89.50
26099;DHT22;13860;52.370;6.764;2022-10-16T00:42:54;13.30;89.40
26099;DHT22;13860;52.370;6.764;2022-10-16T00:45:58;13.20;89.40
26099;DHT22;13860;52.370;6.764;2022-10-16T00:49:04;13.20;89.40
26099;DHT22;13860;52.370;6.764;2022-10-16T00:52:10;13.20;89.40
26099;DHT22;13860;52.370;6.764;2022-10-16T00:55:15;13.20;90.00
26099;DHT22;13860;52.370;6.764;2022-10-16T00:58:20;13.10;89.40
26099;DHT22;13860;52.370;6.764;2022-10-16T01:01:23;13.10;89.40
26099;DHT22;13860;52.370;6.764;2022-10-16T01:04:31;13.10;89.50
26099;DHT22;13860;52.370;6.764;2022-10-16T01:07:43;13.20;89.50
26099;DHT22;13860;52.370;6.764;2022-10-16T01:10:56;13.10;89.50
26099;DHT22;13860;52.370;6.764;2022-10-16T01:14:04;13.10;89.50
26099;DHT22;13860;52.370;6.764;2022-10-16T01:17:12;13.10;89.50
26099;DHT22;13860;52.370;6.764;2022-10-16T01:20:27;13.10;89.60
26099;DHT22;13860;52.370;6.764;2022-10-16T01:23:47;13.10;89.60
26099;DHT22;13860;52.370;6.764;2022-10-16T01:27:14;13.10;89.60
26099;DHT22;13860;52.370;6.764;2022-10-16T01:30:22;13.10;90.10
26099;DHT22;13860;52.370;6.764;2022-10-16T01:33:30;13.10;89.60
26099;DHT22;13860;52.370;6.764;2022-10-16T01:36:38;13.20;89.60
26099;DHT22;13860;52.370;6.764;2022-10-16T01:39:45;13.20;89.60
26099;DHT22;13860;52.370;6.764;2022-10-16T01:42:56;13.20;89.70
26099;DHT22;13860;52.370;6.764;2022-10-16T01:46:03;13.20;89.60
26099;DHT22;13860;52.370;6.764;2022-10-16T01:49:08;13.20;89.60
26099;DHT22;13860;52.370;6.764;2022-10-16T01:52:17;13.20;89.60
26099;DHT22;13860;52.370;6.764;2022-10-16T01:55:27;13.30;89.70
26099;DHT22;13860;52.370;6.764;2022-10-16T01:58:37;13.30;89.60
26099;DHT22;13860;52.370;6.764;2022-10-16T02:01:47;13.30;89.60
26099;DHT22;13860;52.370;6.764;2022-10-16T02:04:56;13.30;89.60
26099;DHT22;13860;52.370;6.764;2022-10-16T02:08:02;13.30;89.60
26099;DHT22;13860;52.370;6.764;2022-10-16T02:11:06;13.30;89.50
26099;DHT22;13860;52.370;6.764;2022-10-16T02:14:12;13.30;90.10
26099;DHT22;13860;52.370;6.764;2022-10-16T02:17:17;13.30;89.50
26099;DHT22;13860;52.370;6.764;2022-10-16T02:20:26;13.30;89.60
26099;DHT22;13860;52.370;6.764;2022-10-16T02:23:36;13.30;89.60
26099;DHT22;13860;52.370;6.764;2022-10-16T02:26:47;13.30;89.60
26099;DHT22;13860;52.370;6.764;2022-10-16T02:29:57;13.30;89.60
26099;DHT22;13860;52.370;6.764;2022-10-16T02:33:06;13.30;89.60
26099;DHT22;13860;52.370;6.764;2022-10-16T02:36:11;13.30;89.70
26099;DHT22;13860;52.370;6.764;2022-10-16T02:39:15;13.30;89.60
26099;DHT22;13860;52.370;6.764;2022-10-16T02:42:19;13.30;89.70
26099;DHT22;13860;52.370;6.764;2022-10-16T02:45:25;13.30;89.70
26099;DHT22;13860;52.370;6.764;2022-10-16T02:48:30;13.30;89.80
26099;DHT22;13860;52.370;6.764;2022-10-16T02:51:34;13.30;89.80
26099;DHT22;13860;52.370;6.764;2022-10-16T02:54:38;13.30;89.70
26099;DHT22;13860;52.370;6.764;2022-10-16T02:57:41;13.30;89.70
26099;DHT22;13860;52.370;6.764;2022-10-16T03:00:47;13.30;89.70
26099;DHT22;13860;52.370;6.764;2022-10-16T03:03:51;13.30;90.10
26099;DHT22;13860;52.370;6.764;2022-10-16T03:06:55;13.30;89.80
26099;DHT22;13860;52.370;6.764;2022-10-16T03:09:58;13.30;89.80
26099;DHT22;13860;52.370;6.764;2022-10-16T03:13:03;13.30;89.80
26099;DHT22;13860;52.370;6.764;2022-10-16T03:16:09;13.30;89.70
26099;DHT22;13860;52.370;6.764;2022-10-16T03:19:13;13.30;89.80
26099;DHT22;13860;52.370;6.764;2022-10-16T03:22:19;13.40;89.90
26099;DHT22;13860;52.370;6.764;2022-10-16T03:25:22;13.40;90.00
26099;DHT22;13860;52.370;6.764;2022-10-16T03:28:26;13.40;90.00
26099;DHT22;13860;52.370;6.764;2022-10-16T03:31:32;13.40;90.00
26099;DHT22;13860;52.370;6.764;2022-10-16T03:34:36;13.40;89.80
26099;DHT22;13860;52.370;6.764;2022-10-16T03:37:39;13.40;89.90
26099;DHT22;13860;52.370;6.764;2022-10-16T03:40:43;13.40;89.90
26099;DHT22;13860;52.370;6.764;2022-10-16T03:43:47;13.40;89.90
26099;DHT22;13860;52.370;6.764;2022-10-16T03:46:52;13.50;90.00
26099;DHT22;13860;52.370;6.764;2022-10-16T03:49:56;13.50;90.00
26099;DHT22;13860;52.370;6.764;2022-10-16T03:53:00;13.50;89.90
26099;DHT22;13860;52.370;6.764;2022-10-16T03:56:04;13.50;89.90
26099;DHT22;13860;52.370;6.764;2022-10-16T03:59:08;13.50;89.90
26099;DHT22;13860;52.370;6.764;2022-10-16T04:02:14;13.50;89.90
26099;DHT22;13860;52.370;6.764;2022-10-16T04:05:17;13.50;89.90
26099;DHT22;13860;52.370;6.764;2022-10-16T04:08:21;13.50;90.00
26099;DHT22;13860;52.370;6.764;2022-10-16T04:11:25;13.60;90.00
26099;DHT22;13860;52.370;6.764;2022-10-16T04:14:29;13.60;90.00
26099;DHT22;13860;52.370;6.764;2022-10-16T04:17:34;13.60;90.00
26099;DHT22;13860;52.370;6.764;2022-10-16T04:20:38;13.60;90.00
26099;DHT22;13860;52.370;6.764;2022-10-16T04:23:42;13.60;90.00
26099;DHT22;13860;52.370;6.764;2022-10-16T04:26:46;13.60;90.00
26099;DHT22;13860;52.370;6.764;2022-10-16T04:29:49;13.60;90.00
26099;DHT22;13860;52.370;6.764;2022-10-16T04:32:55;13.60;90.00
26099;DHT22;13860;52.370;6.764;2022-10-16T04:35:59;13.60;90.00
26099;DHT22;13860;52.370;6.764;2022-10-16T04:39:03;13.70;90.00
26099;DHT22;13860;52.370;6.764;2022-10-16T04:42:07;13.70;90.00
26099;DHT22;13860;52.370;6.764;2022-10-16T04:45:11;13.70;90.00
26099;DHT22;13860;52.370;6.764;2022-10-16T04:48:20;13.70;90.00
26099;DHT22;13860;52.370;6.764;2022-10-16T04:51:23;13.70;89.90
26099;DHT22;13860;52.370;6.764;2022-10-16T04:54:28;13.70;89.90
26099;DHT22;13860;52.370;6.764;2022-10-16T04:57:31;13.70;90.00
26099;DHT22;13860;52.370;6.764;2022-10-16T05:00:36;13.70;90.00
26099;DHT22;13860;52.370;6.764;2022-10-16T05:03:41;13.70;89.90
26099;DHT22;13860;52.370;6.764;2022-10-16T05:06:45;13.70;90.00
26099;DHT22;13860;52.370;6.764;2022-10-16T05:09:48;13.70;89.80
26099;DHT22;13860;52.370;6.764;2022-10-16T05:12:52;13.70;89.90
26099;DHT22;13860;52.370;6.764;2022-10-16T05:15:56;13.70;89.90
26099;DHT22;13860;52.370;6.764;2022-10-16T05:19:01;13.70;89.90
26099;DHT22;13860;52.370;6.764;2022-10-16T05:22:25;13.70;89.90
26099;DHT22;13860;52.370;6.764;2022-10-16T05:25:28;13.70;89.90
26099;DHT22;13860;52.370;6.764;2022-10-16T05:28:32;13.70;89.90
26099;DHT22;13860;52.370;6.764;2022-10-16T05:31:36;13.70;89.90
26099;DHT22;13860;52.370;6.764;2022-10-16T05:34:41;13.70;90.20
26099;DHT22;13860;52.370;6.764;2022-10-16T05:37:45;13.70;89.90
26099;DHT22;13860;52.370;6.764;2022-10-16T05:40:52;13.70;89.90
26099;DHT22;13860;52.370;6.764;2022-10-16T05:43:56;13.70;89.90
26099;DHT22;13860;52.370;6.764;2022-10-16T05:46:59;13.70;89.80
26099;DHT22;13860;52.370;6.764;2022-10-16T05:50:06;13.60;89.80
26099;DHT22;13860;52.370;6.764;2022-10-16T05:53:10;13.60;89.90
26099;DHT22;13860;52.370;6.764;2022-10-16T05:56:14;13.60;89.80
26099;DHT22;13860;52.370;6.764;2022-10-16T05:59:17;13.60;89.80
26099;DHT22;13860;52.370;6.764;2022-10-16T06:02:21;13.60;89.80
26099;DHT22;13860;52.370;6.764;2022-10-16T06:05:27;13.60;89.80
26099;DHT22;13860;52.370;6.764;2022-10-16T06:08:31;13.60;89.80
26099;DHT22;13860;52.370;6.764;2022-10-16T06:11:36;13.60;89.90
26099;DHT22;13860;52.370;6.764;2022-10-16T06:14:39;13.60;89.80
26099;DHT22;13860;52.370;6.764;2022-10-16T06:17:43;13.60;89.80
26099;DHT22;13860;52.370;6.764;2022-10-16T06:20:49;13.60;89.90
26099;DHT22;13860;52.370;6.764;2022-10-16T06:23:53;13.60;89.80
26099;DHT22;13860;52.370;6.764;2022-10-16T06:26:57;13.50;89.70
26099;DHT22;13860;52.370;6.764;2022-10-16T06:30:01;13.50;89.70
26099;DHT22;13860;52.370;6.764;2022-10-16T06:33:04;13.50;89.80
26099;DHT22;13860;52.370;6.764;2022-10-16T06:36:13;13.50;89.80
26099;DHT22;13860;52.370;6.764;2022-10-16T06:39:18;13.50;89.80
26099;DHT22;13860;52.370;6.764;2022-10-16T06:42:21;13.50;89.80
26099;DHT22;13860;52.370;6.764;2022-10-16T06:45:25;13.50;89.80
26099;DHT22;13860;52.370;6.764;2022-10-16T06:48:30;13.50;89.80
26099;DHT22;13860;52.370;6.764;2022-10-16T06:51:36;13.50;89.80
26099;DHT22;13860;52.370;6.764;2022-10-16T06:54:44;13.50;89.80
26099;DHT22;13860;52.370;6.764;2022-10-16T06:57:48;13.50;89.90
26099;DHT22;13860;52.370;6.764;2022-10-16T07:00:54;13.50;89.90
26099;DHT22;13860;52.370;6.764;2022-10-16T07:03:58;13.50;90.20
26099;DHT22;13860;52.370;6.764;2022-10-16T07:07:05;13.50;89.80
26099;DHT22;13860;52.370;6.764;2022-10-16T07:10:10;13.50;89.90
26099;DHT22;13860;52.370;6.764;2022-10-16T07:13:14;13.50;90.00
26099;DHT22;13860;52.370;6.764;2022-10-16T07:16:19;13.50;90.00
26099;DHT22;13860;52.370;6.764;2022-10-16T07:19:23;13.60;90.30
26099;DHT22;13860;52.370;6.764;2022-10-16T07:22:33;13.60;90.10
26099;DHT22;13860;52.370;6.764;2022-10-16T07:25:37;13.60;90.10
26099;DHT22;13860;52.370;6.764;2022-10-16T07:28:42;13.60;90.10
26099;DHT22;13860;52.370;6.764;2022-10-16T07:31:47;13.70;90.10
26099;DHT22;13860;52.370;6.764;2022-10-16T07:34:51;13.70;90.10
26099;DHT22;13860;52.370;6.764;2022-10-16T07:37:56;13.70;90.10
26099;DHT22;13860;52.370;6.764;2022-10-16T07:41:01;13.80;90.10
26099;DHT22;13860;52.370;6.764;2022-10-16T07:44:05;13.80;90.00
26099;DHT22;13860;52.370;6.764;2022-10-16T07:47:09;13.80;90.00
26099;DHT22;13860;52.370;6.764;2022-10-16T07:50:13;13.90;90.10
26099;DHT22;13860;52.370;6.764;2022-10-16T07:53:19;13.90;90.10
26099;DHT22;13860;52.370;6.764;2022-10-16T07:56:28;13.90;90.10
26099;DHT22;13860;52.370;6.764;2022-10-16T07:59:33;14.00;90.10
26099;DHT22;13860;52.370;6.764;2022-10-16T08:02:37;14.00;90.10
26099;DHT22;13860;52.370;6.764;2022-10-16T08:05:40;14.00;90.10
26099;DHT22;13860;52.370;6.764;2022-10-16T08:08:46;14.00;90.10
26099;DHT22;13860;52.370;6.764;2022-10-16T08:11:50;14.10;90.10
26099;DHT22;13860;52.370;6.764;2022-10-16T08:14:54;14.10;90.10
26099;DHT22;13860;52.370;6.764;2022-10-16T08:17:59;14.10;90.10
26099;DHT22;13860;52.370;6.764;2022-10-16T08:21:03;14.20;90.10
26099;DHT22;13860;52.370;6.764;2022-10-16T08:24:09;14.20;90.10
26099;DHT22;13860;52.370;6.764;2022-10-16T08:27:13;14.30;90.10
26099;DHT22;13860;52.370;6.764;2022-10-16T08:30:17;14.30;90.10
26099;DHT22;13860;52.370;6.764;2022-10-16T08:33:21;14.40;90.20
26099;DHT22;13860;52.370;6.764;2022-10-16T08:36:25;14.40;90.10
26099;DHT22;13860;52.370;6.764;2022-10-16T08:39:31;14.50;90.10
26099;DHT22;13860;52.370;6.764;2022-10-16T08:42:45;14.60;90.10
26099;DHT22;13860;52.370;6.764;2022-10-16T08:46:21;14.70;90.10
26099;DHT22;13860;52.370;6.764;2022-10-16T08:49:29;14.70;90.10
26099;DHT22;13860;52.370;6.764;2022-10-16T08:52:35;14.80;90.00
26099;DHT22;13860;52.370;6.764;2022-10-16T08:55:46;14.90;90.00
26099;DHT22;13860;52.370;6.764;2022-10-16T08:58:52;14.90;90.00
26099;DHT22;13860;52.370;6.764;2022-10-16T09:02:24;15.00;90.00
26099;DHT22;13860;52.370;6.764;2022-10-16T09:05:44;15.00;89.90
26099;DHT22;13860;52.370;6.764;2022-10-16T09:09:05;15.10;89.90
26099;DHT22;13860;52.370;6.764;2022-10-16T09:12:17;15.20;89.90
26099;DHT22;13860;52.370;6.764;2022-10-16T09:15:29;15.20;89.80
26099;DHT22;13860;52.370;6.764;2022-10-16T09:18:40;15.30;89.80
26099;DHT22;13860;52.370;6.764;2022-10-16T09:21:47;15.40;89.80
26099;DHT22;13860;52.370;6.764;2022-10-16T09:24:50;15.50;89.70
26099;DHT22;13860;52.370;6.764;2022-10-16T09:27:57;15.60;89.70
26099;DHT22;13860;52.370;6.764;2022-10-16T09:31:00;15.70;89.60
26099;DHT22;13860;52.370;6.764;2022-10-16T09:34:05;15.80;89.60
26099;DHT22;13860;52.370;6.764;2022-10-16T09:37:12;15.90;89.60
26099;DHT22;13860;52.370;6.764;2022-10-16T09:40:25;16.00;89.50
26099;DHT22;13860;52.370;6.764;2022-10-16T09:43:35;16.20;89.30
26099;DHT22;13860;52.370;6.764;2022-10-16T09:46:42;16.30;89.20
26099;DHT22;13860;52.370;6.764;2022-10-16T09:49:53;16.50;89.10
26099;DHT22;13860;52.370;6.764;2022-10-16T09:53:05;16.60;89.00
26099;DHT22;13860;52.370;6.764;2022-10-16T09:56:10;16.80;88.90
26099;DHT22;13860;52.370;6.764;2022-10-16T09:59:18;17.00;88.90
26099;DHT22;13860;52.370;6.764;2022-10-16T10:02:27;17.20;88.80
26099;DHT22;13860;52.370;6.764;2022-10-16T10:05:32;17.40;88.40
26099;DHT22;13860;52.370;6.764;2022-10-16T10:08:35;17.50;88.20
26099;DHT22;13860;52.370;6.764;2022-10-16T10:11:48;17.60;87.90
26099;DHT22;13860;52.370;6.764;2022-10-16T10:14:56;17.80;87.60
26099;DHT22;13860;52.370;6.764;2022-10-16T10:18:00;17.90;87.40
26099;DHT22;13860;52.370;6.764;2022-10-16T10:21:04;18.00;87.30
26099;DHT22;13860;52.370;6.764;2022-10-16T10:24:11;18.20;87.10
26099;DHT22;13860;52.370;6.764;2022-10-16T10:27:16;18.30;86.80
26099;DHT22;13860;52.370;6.764;2022-10-16T10:30:27;18.40;86.60
26099;DHT22;13860;52.370;6.764;2022-10-16T10:33:40;18.60;86.50
26099;DHT22;13860;52.370;6.764;2022-10-16T10:36:49;18.70;86.30
26099;DHT22;13860;52.370;6.764;2022-10-16T10:39:59;18.90;86.00
26099;DHT22;13860;52.370;6.764;2022-10-16T10:43:17;19.00;86.20
26099;DHT22;13860;52.370;6.764;2022-10-16T10:46:34;19.10;85.30
26099;DHT22;13860;52.370;6.764;2022-10-16T10:49:51;19.20;85.20
26099;DHT22;13860;52.370;6.764;2022-10-16T10:53:05;19.30;84.90
26099;DHT22;13860;52.370;6.764;2022-10-16T10:56:26;19.40;84.60
26099;DHT22;13860;52.370;6.764;2022-10-16T11:00:03;19.50;84.10
26099;DHT22;13860;52.370;6.764;2022-10-16T11:03:25;19.60;84.00
26099;DHT22;13860;52.370;6.764;2022-10-16T11:06:33;19.60;83.70
26099;DHT22;13860;52.370;6.764;2022-10-16T11:09:42;19.70;83.70
26099;DHT22;13860;52.370;6.764;2022-10-16T11:12:51;19.70;83.30
26099;DHT22;13860;52.370;6.764;2022-10-16T11:15:58;19.70;83.00
26099;DHT22;13860;52.370;6.764;2022-10-16T11:19:13;19.80;82.80
26099;DHT22;13860;52.370;6.764;2022-10-16T11:22:23;19.80;82.30
26099;DHT22;13860;52.370;6.764;2022-10-16T11:25:29;19.90;82.30
26099;DHT22;13860;52.370;6.764;2022-10-16T11:28:38;19.90;82.10
26099;DHT22;13860;52.370;6.764;2022-10-16T11:31:46;19.90;81.70
26099;DHT22;13860;52.370;6.764;2022-10-16T11:34:57;19.90;81.60
26099;DHT22;13860;52.370;6.764;2022-10-16T11:38:04;19.90;81.30
26099;DHT22;13860;52.370;6.764;2022-10-16T11:41:20;19.90;81.30
26099;DHT22;13860;52.370;6.764;2022-10-16T11:44:44;19.90;81.00
26099;DHT22;13860;52.370;6.764;2022-10-16T11:47:54;19.90;81.50
26099;DHT22;13860;52.370;6.764;2022-10-16T11:51:08;19.90;81.00
26099;DHT22;13860;52.370;6.764;2022-10-16T11:54:20;20.00;80.90
26099;DHT22;13860;52.370;6.764;2022-10-16T11:57:27;20.10;80.80
26099;DHT22;13860;52.370;6.764;2022-10-16T12:00:37;20.10;80.60
26099;DHT22;13860;52.370;6.764;2022-10-16T12:03:47;20.20;80.30
26099;DHT22;13860;52.370;6.764;2022-10-16T12:06:58;20.20;80.10
26099;DHT22;13860;52.370;6.764;2022-10-16T12:10:10;20.30;79.80
26099;DHT22;13860;52.370;6.764;2022-10-16T12:13:31;20.30;79.40
26099;DHT22;13860;52.370;6.764;2022-10-16T12:16:37;20.40;79.10
26099;DHT22;13860;52.370;6.764;2022-10-16T12:19:41;20.40;79.30
26099;DHT22;13860;52.370;6.764;2022-10-16T12:22:51;20.40;79.60
26099;DHT22;13860;52.370;6.764;2022-10-16T12:25:58;20.50;78.60
26099;DHT22;13860;52.370;6.764;2022-10-16T12:29:14;20.50;78.60
26099;DHT22;13860;52.370;6.764;2022-10-16T12:32:26;20.50;78.10
26099;DHT22;13860;52.370;6.764;2022-10-16T12:35:47;20.50;78.10
26099;DHT22;13860;52.370;6.764;2022-10-16T12:38:53;20.50;78.10
26099;DHT22;13860;52.370;6.764;2022-10-16T12:42:02;20.40;77.70
26099;DHT22;13860;52.370;6.764;2022-10-16T12:45:24;20.40;77.50
26099;DHT22;13860;52.370;6.764;2022-10-16T12:48:28;20.30;76.90
26099;DHT22;13860;52.370;6.764;2022-10-16T12:51:50;20.20;77.40
26099;DHT22;13860;52.370;6.764;2022-10-16T12:54:58;20.10;77.30
26099;DHT22;13860;52.370;6.764;2022-10-16T12:58:21;20.10;77.20
26099;DHT22;13860;52.370;6.764;2022-10-16T13:01:39;20.00;76.90
26099;DHT22;13860;52.370;6.764;2022-10-16T13:05:01;19.90;76.90
26099;DHT22;13860;52.370;6.764;2022-10-16T13:08:22;19.90;77.00
26099;DHT22;13860;52.370;6.764;2022-10-16T13:11:36;19.80;76.90
26099;DHT22;13860;52.370;6.764;2022-10-16T13:15:04;19.70;77.00
26099;DHT22;13860;52.370;6.764;2022-10-16T13:18:14;19.60;76.80
26099;DHT22;13860;52.370;6.764;2022-10-16T13:21:32;19.60;77.10
26099;DHT22;13860;52.370;6.764;2022-10-16T13:24:52;19.50;76.70
26099;DHT22;13860;52.370;6.764;2022-10-16T13:28:02;19.50;76.50
26099;DHT22;13860;52.370;6.764;2022-10-16T13:31:13;19.40;76.70
26099;DHT22;13860;52.370;6.764;2022-10-16T13:34:20;19.40;76.50
26099;DHT22;13860;52.370;6.764;2022-10-16T13:37:24;19.30;76.60
26099;DHT22;13860;52.370;6.764;2022-10-16T13:40:29;19.30;76.60
26099;DHT22;13860;52.370;6.764;2022-10-16T13:43:37;19.30;76.50
26099;DHT22;13860;52.370;6.764;2022-10-16T13:46:42;19.20;76.20
26099;DHT22;13860;52.370;6.764;2022-10-16T13:49:46;19.20;76.20
26099;DHT22;13860;52.370;6.764;2022-10-16T13:52:49;19.10;76.10
26099;DHT22;13860;52.370;6.764;2022-10-16T13:55:54;19.00;75.90
26099;DHT22;13860;52.370;6.764;2022-10-16T13:59:01;19.00;75.90
26099;DHT22;13860;52.370;6.764;2022-10-16T14:02:14;18.90;75.80
26099;DHT22;13860;52.370;6.764;2022-10-16T14:05:19;18.90;75.70
26099;DHT22;13860;52.370;6.764;2022-10-16T14:08:24;18.80;75.90
26099;DHT22;13860;52.370;6.764;2022-10-16T14:11:29;18.80;75.90
26099;DHT22;13860;52.370;6.764;2022-10-16T14:14:35;18.80;75.90
26099;DHT22;13860;52.370;6.764;2022-10-16T14:17:48;18.80;76.20
26099;DHT22;13860;52.370;6.764;2022-10-16T14:20:53;18.70;76.20
26099;DHT22;13860;52.370;6.764;2022-10-16T14:24:11;18.70;76.10
26099;DHT22;13860;52.370;6.764;2022-10-16T14:27:26;18.70;75.70
26099;DHT22;13860;52.370;6.764;2022-10-16T14:30:35;18.70;75.70
26099;DHT22;13860;52.370;6.764;2022-10-16T14:33:40;18.70;75.80
26099;DHT22;13860;52.370;6.764;2022-10-16T14:36:44;18.60;75.80
26099;DHT22;13860;52.370;6.764;2022-10-16T14:39:49;18.60;75.80
26099;DHT22;13860;52.370;6.764;2022-10-16T14:42:53;18.60;75.80
26099;DHT22;13860;52.370;6.764;2022-10-16T14:45:59;18.60;75.70
26099;DHT22;13860;52.370;6.764;2022-10-16T14:49:15;18.60;75.60
26099;DHT22;13860;52.370;6.764;2022-10-16T14:52:20;18.50;75.40
26099;DHT22;13860;52.370;6.764;2022-10-16T14:55:23;18.50;75.50
26099;DHT22;13860;52.370;6.764;2022-10-16T14:58:27;18.50;75.70
26099;DHT22;13860;52.370;6.764;2022-10-16T15:01:33;18.50;75.80
26099;DHT22;13860;52.370;6.764;2022-10-16T15:04:37;18.50;75.60
26099;DHT22;13860;52.370;6.764;2022-10-16T15:07:40;18.50;75.50
26099;DHT22;13860;52.370;6.764;2022-10-16T15:10:44;18.40;75.40
26099;DHT22;13860;52.370;6.764;2022-10-16T15:13:48;18.40;75.40
26099;DHT22;13860;52.370;6.764;2022-10-16T15:16:53;18.40;75.30
26099;DHT22;13860;52.370;6.764;2022-10-16T15:19:57;18.40;75.30
26099;DHT22;13860;52.370;6.764;2022-10-16T15:23:01;18.30;75.30
26099;DHT22;13860;52.370;6.764;2022-10-16T15:26:05;18.30;75.30
26099;DHT22;13860;52.370;6.764;2022-10-16T15:29:09;18.30;75.30
26099;DHT22;13860;52.370;6.764;2022-10-16T15:32:14;18.20;75.30
26099;DHT22;13860;52.370;6.764;2022-10-16T15:35:18;18.20;75.20
26099;DHT22;13860;52.370;6.764;2022-10-16T15:38:22;18.10;75.20
26099;DHT22;13860;52.370;6.764;2022-10-16T15:41:25;18.10;75.20
26099;DHT22;13860;52.370;6.764;2022-10-16T15:44:29;18.10;75.50
26099;DHT22;13860;52.370;6.764;2022-10-16T15:47:35;18.00;75.50
26099;DHT22;13860;52.370;6.764;2022-10-16T15:50:43;18.00;75.60
26099;DHT22;13860;52.370;6.764;2022-10-16T15:53:46;17.90;75.60
26099;DHT22;13860;52.370;6.764;2022-10-16T15:56:52;17.90;75.70
26099;DHT22;13860;52.370;6.764;2022-10-16T15:59:55;17.80;75.60
26099;DHT22;13860;52.370;6.764;2022-10-16T16:03:01;17.80;75.70
26099;DHT22;13860;52.370;6.764;2022-10-16T16:06:06;17.80;75.80
26099;DHT22;13860;52.370;6.764;2022-10-16T16:09:10;17.70;75.80
26099;DHT22;13860;52.370;6.764;2022-10-16T16:12:14;17.70;75.90
26099;DHT22;13860;52.370;6.764;2022-10-16T16:15:19;17.60;75.90
26099;DHT22;13860;52.370;6.764;2022-10-16T16:18:24;17.50;75.90
26099;DHT22;13860;52.370;6.764;2022-10-16T16:21:33;17.50;76.00
26099;DHT22;13860;52.370;6.764;2022-10-16T16:24:37;17.40;76.00
26099;DHT22;13860;52.370;6.764;2022-10-16T16:27:40;17.40;76.20
26099;DHT22;13860;52.370;6.764;2022-10-16T16:30:44;17.30;76.20
26099;DHT22;13860;52.370;6.764;2022-10-16T16:33:49;17.20;76.30
26099;DHT22;13860;52.370;6.764;2022-10-16T16:36:54;17.10;76.30
26099;DHT22;13860;52.370;6.764;2022-10-16T16:39:57;17.10;76.40
26099;DHT22;13860;52.370;6.764;2022-10-16T16:43:01;17.00;76.50
26099;DHT22;13860;52.370;6.764;2022-10-16T16:46:05;16.90;76.50
26099;DHT22;13860;52.370;6.764;2022-10-16T16:49:11;16.90;76.70
26099;DHT22;13860;52.370;6.764;2022-10-16T16:52:16;16.80;76.70
26099;DHT22;13860;52.370;6.764;2022-10-16T16:55:20;16.70;76.70
26099;DHT22;13860;52.370;6.764;2022-10-16T16:58:23;16.70;76.80
26099;DHT22;13860;52.370;6.764;2022-10-16T17:01:28;16.60;76.80
26099;DHT22;13860;52.370;6.764;2022-10-16T17:04:34;16.50;76.90
26099;DHT22;13860;52.370;6.764;2022-10-16T17:07:38;16.50;77.00
26099;DHT22;13860;52.370;6.764;2022-10-16T17:10:43;16.40;77.10
26099;DHT22;13860;52.370;6.764;2022-10-16T17:13:48;16.30;77.10
26099;DHT22;13860;52.370;6.764;2022-10-16T17:16:58;16.30;77.20
26099;DHT22;13860;52.370;6.764;2022-10-16T17:20:04;16.20;77.30
26099;DHT22;13860;52.370;6.764;2022-10-16T17:23:10;16.20;77.30
26099;DHT22;13860;52.370;6.764;2022-10-16T17:26:16;16.10;77.40
26099;DHT22;13860;52.370;6.764;2022-10-16T17:29:20;16.10;77.50
26099;DHT22;13860;52.370;6.764;2022-10-16T17:32:23;16.00;77.50
26099;DHT22;13860;52.370;6.764;2022-10-16T17:35:35;16.00;77.60
26099;DHT22;13860;52.370;6.764;2022-10-16T17:38:39;15.90;77.60
26099;DHT22;13860;52.370;6.764;2022-10-16T17:41:44;15.90;77.70
26099;DHT22;13860;52.370;6.764;2022-10-16T17:44:48;15.80;77.70
26099;DHT22;13860;52.370;6.764;2022-10-16T17:47:51;15.70;77.70
26099;DHT22;13860;52.370;6.764;2022-10-16T17:50:57;15.70;77.90
26099;DHT22;13860;52.370;6.764;2022-10-16T17:54:01;15.60;77.90
26099;DHT22;13860;52.370;6.764;2022-10-16T17:57:05;15.60;78.00
26099;DHT22;13860;52.370;6.764;2022-10-16T18:00:10;15.60;78.10
26099;DHT22;13860;52.370;6.764;2022-10-16T18:03:13;15.50;78.10
26099;DHT22;13860;52.370;6.764;2022-10-16T18:06:20;15.50;78.20
26099;DHT22;13860;52.370;6.764;2022-10-16T18:09:24;15.40;78.30
26099;DHT22;13860;52.370;6.764;2022-10-16T18:12:29;15.30;78.20
26099;DHT22;13860;52.370;6.764;2022-10-16T18:15:35;15.30;78.30
26099;DHT22;13860;52.370;6.764;2022-10-16T18:18:40;15.30;78.30
26099;DHT22;13860;52.370;6.764;2022-10-16T18:21:46;15.20;78.40
26099;DHT22;13860;52.370;6.764;2022-10-16T18:24:50;15.20;78.50
26099;DHT22;13860;52.370;6.764;2022-10-16T18:27:54;15.10;78.50
26099;DHT22;13860;52.370;6.764;2022-10-16T18:30:59;15.10;78.60
26099;DHT22;13860;52.370;6.764;2022-10-16T18:34:04;15.10;78.70
26099;DHT22;13860;52.370;6.764;2022-10-16T18:37:09;15.10;78.70
26099;DHT22;13860;52.370;6.764;2022-10-16T18:40:14;15.00;78.70
26099;DHT22;13860;52.370;6.764;2022-10-16T18:43:18;15.00;78.70
26099;DHT22;13860;52.370;6.764;2022-10-16T18:46:23;15.00;78.80
26099;DHT22;13860;52.370;6.764;2022-10-16T18:49:27;15.00;78.90
26099;DHT22;13860;52.370;6.764;2022-10-16T18:52:32;15.00;79.00
26099;DHT22;13860;52.370;6.764;2022-10-16T18:55:36;14.90;79.00
26099;DHT22;13860;52.370;6.764;2022-10-16T18:58:40;15.00;79.10
26099;DHT22;13860;52.370;6.764;2022-10-16T19:01:44;14.90;79.10
26099;DHT22;13860;52.370;6.764;2022-10-16T19:04:49;14.90;79.20
26099;DHT22;13860;52.370;6.764;2022-10-16T19:07:54;14.90;79.20
26099;DHT22;13860;52.370;6.764;2022-10-16T19:11:02;14.90;79.30
26099;DHT22;13860;52.370;6.764;2022-10-16T19:14:05;14.80;79.30
26099;DHT22;13860;52.370;6.764;2022-10-16T19:17:09;14.80;79.40
26099;DHT22;13860;52.370;6.764;2022-10-16T19:20:13;14.80;79.40
26099;DHT22;13860;52.370;6.764;2022-10-16T19:23:18;14.80;79.50
26099;DHT22;13860;52.370;6.764;2022-10-16T19:26:23;14.80;79.60
26099;DHT22;13860;52.370;6.764;2022-10-16T19:29:27;14.80;79.60
26099;DHT22;13860;52.370;6.764;2022-10-16T19:32:31;14.80;79.70
26099;DHT22;13860;52.370;6.764;2022-10-16T19:35:35;14.70;79.70
26099;DHT22;13860;52.370;6.764;2022-10-16T19:38:40;14.80;79.80
26099;DHT22;13860;52.370;6.764;2022-10-16T19:41:47;14.70;79.70